Time;durP1;ratioP1;P1;durP2;ratioP2;P2;SDS_P1;SDS_P2;PMS_P1;PMS_P2;Temp;Humidity;BMP_temperature;BMP_pressure;BME280_temperature;BME280_humidity;BME280_pressure;Samples;Min_cycle;Max_cycle;Signal;HPM_P1;HPM_P2
2021/07/06 00:01:51;;;;;;;1.83;1.42;;;;;;;20.65;63.06;96578.09;5027377;28;20036;-77
2021/07/06 00:04:16;;;;;;;4.03;1.92;;;;;;;20.62;63.35;96573.44;5062538;28;20032;-77
2021/07/06 00:06:42;;;;;;;2.20;1.20;;;;;;;20.61;63.44;96573.75;5047773;28;20549;-77
2021/07/06 00:09:07;;;;;;;1.58;1.45;;;;;;;20.54;63.30;96566.31;5059819;28;20466;-78
2021/07/06 00:11:33;;;;;;;3.05;1.33;;;;;;;20.49;63.40;96558.59;5045590;28;20064;-77
2021/07/06 00:13:58;;;;;;;1.60;1.50;;;;;;;20.47;63.30;96550.97;5025049;28;20021;-77
2021/07/06 00:16:24;;;;;;;2.13;1.60;;;;;;;20.45;63.49;96560.34;5050443;28;20111;-77
2021/07/06 00:18:49;;;;;;;2.15;1.45;;;;;;;20.47;63.22;96553.63;5035525;28;20036;-77
2021/07/06 00:21:15;;;;;;;2.15;1.58;;;;;;;20.46;63.46;96553.94;5037717;28;20036;-77
2021/07/06 00:23:41;;;;;;;1.83;1.42;;;;;;;20.53;63.19;96559.50;5071166;28;20032;-77
2021/07/06 00:26:06;;;;;;;1.73;1.48;;;;;;;20.43;63.63;96554.63;5070234;28;20111;-77
2021/07/06 00:28:32;;;;;;;1.77;1.17;;;;;;;20.44;63.30;96550.84;5037718;28;20090;-77
2021/07/06 00:30:58;;;;;;;1.60;1.50;;;;;;;20.33;63.52;96553.13;5070929;28;20063;-78
2021/07/06 00:33:28;;;;;;;1.48;1.27;;;;;;;20.30;63.98;96543.19;5054342;28;20036;-77
2021/07/06 00:35:57;;;;;;;1.67;1.52;;;;;;;20.29;63.75;96539.78;5036645;28;20037;-77
2021/07/06 00:38:23;;;;;;;1.73;1.33;;;;;;;20.27;64.01;96531.41;5038048;28;20028;-77
2021/07/06 00:40:48;;;;;;;1.60;1.40;;;;;;;20.23;64.00;96530.47;5054058;28;20040;-77
2021/07/06 00:43:13;;;;;;;1.70;1.45;;;;;;;20.20;64.07;96531.91;5071269;28;20032;-78
2021/07/06 00:45:39;;;;;;;1.30;1.20;;;;;;;20.09;64.21;96512.25;5051933;28;20051;-77
2021/07/06 00:48:04;;;;;;;3.03;1.52;;;;;;;20.10;64.29;96520.94;5070444;28;20071;-77
2021/07/06 00:50:30;;;;;;;2.40;1.52;;;;;;;20.09;64.45;96519.41;5037077;28;20101;-77
2021/07/06 00:52:56;;;;;;;2.22;1.50;;;;;;;20.04;64.52;96512.44;5050561;28;20452;-77
2021/07/06 00:55:21;;;;;;;2.45;1.50;;;;;;;20.06;64.70;96509.47;5070588;28;20309;-77
2021/07/06 00:57:47;;;;;;;1.48;1.35;;;;;;;20.04;64.11;96509.03;5068772;28;20086;-77
2021/07/06 01:00:14;;;;;;;2.78;1.63;;;;;;;20.06;64.29;96504.94;5039623;28;20020;-77
2021/07/06 01:02:41;;;;;;;2.72;1.40;;;;;;;20.08;64.09;96501.97;5071498;22;20069;-81
2021/07/06 01:05:09;;;;;;;2.28;1.52;;;;;;;20.14;63.96;96506.00;4988266;28;20115;-83
2021/07/06 01:07:35;;;;;;;3.40;1.50;;;;;;;20.14;63.90;96490.91;4995531;28;20095;-82
2021/07/06 01:10:00;;;;;;;1.67;1.30;;;;;;;20.21;63.97;96506.25;5034360;28;20052;-82
2021/07/06 01:12:26;;;;;;;1.52;1.25;;;;;;;20.24;63.75;96500.31;5031909;28;20446;-82
2021/07/06 01:14:51;;;;;;;3.05;1.35;;;;;;;20.26;63.34;96500.00;5029991;28;20021;-82
2021/07/06 01:17:25;;;;;;;3.42;1.50;;;;;;;20.06;63.60;96504.19;5016496;28;20037;-82
2021/07/06 01:19:51;;;;;;;1.80;1.33;;;;;;;20.12;63.37;96492.34;5014514;28;20032;-81
2021/07/06 01:22:29;;;;;;;1.48;1.20;;;;;;;19.94;63.81;96492.44;5034326;28;20562;-83
2021/07/06 01:24:55;;;;;;;2.00;1.40;;;;;;;20.25;63.29;96509.00;5018004;28;20029;-82
2021/07/06 01:27:21;;;;;;;3.92;1.45;;;;;;;20.17;63.56;96494.78;5017940;28;20021;-82
2021/07/06 01:29:49;;;;;;;1.20;1.10;;;;;;;20.10;63.64;96494.50;5034292;28;20074;-83
2021/07/06 01:32:14;;;;;;;1.65;1.50;;;;;;;20.18;63.64;96502.34;5033384;28;20040;-82
2021/07/06 01:34:40;;;;;;;2.00;1.17;;;;;;;20.13;63.87;96493.88;5017346;28;20552;-83
2021/07/06 01:37:05;;;;;;;2.20;1.27;;;;;;;20.07;63.45;96489.88;5015062;28;20116;-82
2021/07/06 01:39:31;;;;;;;1.40;1.30;;;;;;;20.07;63.89;96489.88;5009969;28;20107;-83
2021/07/06 01:41:56;;;;;;;1.55;1.15;;;;;;;20.05;63.72;96482.28;5011256;28;20042;-82
2021/07/06 01:44:26;;;;;;;2.47;1.40;;;;;;;20.10;63.87;96491.84;5034184;28;20040;-82
2021/07/06 01:46:54;;;;;;;1.40;1.05;;;;;;;20.07;63.73;96489.88;5033817;28;20029;-82
2021/07/06 01:49:21;;;;;;;2.08;1.60;;;;;;;20.17;63.49;96492.91;5017090;28;20029;-82
2021/07/06 01:51:47;;;;;;;1.33;1.23;;;;;;;20.18;63.46;96488.38;5017018;28;20060;-82
2021/07/06 01:54:16;;;;;;;1.98;1.35;;;;;;;20.19;63.17;96487.28;5015120;28;20025;-82
2021/07/06 01:56:45;;;;;;;1.63;1.35;;;;;;;20.24;63.32;96484.47;5033153;28;20043;-82
2021/07/06 01:59:11;;;;;;;1.30;1.20;;;;;;;20.29;63.14;96478.97;5033908;28;20361;-82
2021/07/06 02:01:37;;;;;;;1.40;1.30;;;;;;;20.28;62.96;96461.56;5033067;28;20032;-82
2021/07/06 02:04:04;;;;;;;1.98;1.55;;;;;;;20.31;62.89;96454.84;4996836;28;20543;-82
2021/07/06 02:06:29;;;;;;;1.50;1.40;;;;;;;20.33;62.98;96458.72;5012904;28;20040;-82
2021/07/06 02:08:55;;;;;;;1.40;1.30;;;;;;;20.42;62.90;96463.16;5011196;28;20113;-82
2021/07/06 02:11:20;;;;;;;1.92;1.20;;;;;;;20.39;63.13;96453.97;4993700;28;20038;-82
2021/07/06 02:13:46;;;;;;;1.30;1.20;;;;;;;20.38;63.34;96453.22;5013292;28;20076;-82
2021/07/06 02:16:11;;;;;;;3.63;1.40;;;;;;;20.40;63.22;96456.31;5013899;28;20030;-82
2021/07/06 02:18:37;;;;;;;1.88;1.27;;;;;;;20.40;63.07;96445.72;5010069;28;20062;-82
2021/07/06 02:21:03;;;;;;;1.83;1.48;;;;;;;20.39;63.40;96446.06;5012702;28;20483;-82
2021/07/06 02:23:30;;;;;;;1.75;1.25;;;;;;;20.39;63.46;96451.34;5009653;28;20034;-82
2021/07/06 02:26:01;;;;;;;1.80;1.58;;;;;;;20.32;63.35;96456.38;5026502;28;20037;-82
2021/07/06 02:28:26;;;;;;;2.40;1.45;;;;;;;20.34;63.38;96447.03;5028560;28;20034;-82
2021/07/06 02:30:51;;;;;;;1.60;1.40;;;;;;;20.43;63.20;96454.13;5010074;28;20045;-82
2021/07/06 02:33:17;;;;;;;3.17;1.30;;;;;;;20.37;63.31;96450.91;5011286;28;20025;-82
2021/07/06 02:35:43;;;;;;;1.45;1.35;;;;;;;20.34;63.81;96451.53;4991361;28;20036;-82
2021/07/06 02:38:12;;;;;;;2.35;1.30;;;;;;;20.39;63.48;96449.47;5013412;28;20059;-81
2021/07/06 02:40:38;;;;;;;1.48;1.25;;;;;;;20.48;63.40;96451.28;5013300;28;20037;-82
2021/07/06 02:43:04;;;;;;;2.35;1.27;;;;;;;20.47;63.47;96439.16;5012958;28;20030;-82
2021/07/06 02:45:32;;;;;;;2.55;1.60;;;;;;;20.35;63.57;96437.22;5012398;28;20108;-82
2021/07/06 02:47:58;;;;;;;2.05;1.20;;;;;;;20.56;63.30;96443.25;5013391;28;20032;-82
2021/07/06 02:50:24;;;;;;;1.95;1.30;;;;;;;20.59;62.77;96436.53;5013072;28;20544;-82
2021/07/06 02:52:50;;;;;;;1.50;1.30;;;;;;;20.64;62.59;96425.75;5013226;28;20038;-83
2021/07/06 02:55:18;;;;;;;2.58;1.05;;;;;;;20.69;62.67;96440.66;5006974;28;20037;-82
2021/07/06 02:57:45;;;;;;;1.65;1.20;;;;;;;20.73;62.63;96423.81;5010416;28;20045;-83
2021/07/06 03:00:14;;;;;;;1.50;1.38;;;;;;;20.70;62.97;96431.59;4997019;28;20026;-82
2021/07/06 03:02:41;;;;;;;2.95;1.40;;;;;;;20.74;62.44;96427.22;5028663;28;20034;-82
2021/07/06 03:05:08;;;;;;;1.90;1.38;;;;;;;20.81;62.35;96435.38;5005745;28;20122;-82
2021/07/06 03:07:35;;;;;;;1.35;1.25;;;;;;;20.87;62.17;96428.00;5011262;28;20056;-82
2021/07/06 03:10:06;;;;;;;1.50;1.40;;;;;;;20.86;62.12;96418.53;5012927;28;20105;-82
2021/07/06 03:12:32;;;;;;;1.55;1.20;;;;;;;20.89;62.10;96417.88;5012474;28;20086;-83
2021/07/06 03:14:57;;;;;;;1.23;1.10;;;;;;;20.88;61.87;96419.72;5012446;28;20063;-82
2021/07/06 03:17:24;;;;;;;1.33;1.10;;;;;;;20.89;61.78;96415.25;4994000;28;20161;-81
2021/07/06 03:19:49;;;;;;;1.42;1.10;;;;;;;20.86;62.03;96408.72;5026434;28;20128;-82
2021/07/06 03:22:15;;;;;;;2.63;1.48;;;;;;;20.91;61.94;96407.72;5011785;28;20820;-82
2021/07/06 03:24:40;;;;;;;6.22;1.77;;;;;;;20.91;62.02;96400.56;5006355;28;20471;-82
2021/07/06 03:27:05;;;;;;;1.77;1.38;;;;;;;20.91;61.66;96403.22;5011134;28;20101;-82
2021/07/06 03:29:31;;;;;;;1.08;1.02;;;;;;;20.92;61.91;96401.31;4994714;28;20117;-83
2021/07/06 03:31:56;;;;;;;1.20;1.10;;;;;;;20.90;61.70;96395.59;5012117;28;20033;-82
2021/07/06 03:34:22;;;;;;;1.20;1.10;;;;;;;20.88;61.78;96395.91;4993123;28;20030;-82
2021/07/06 03:36:48;;;;;;;2.75;1.50;;;;;;;20.97;61.54;96403.75;4989838;28;20030;-82
2021/07/06 03:39:14;;;;;;;2.33;1.13;;;;;;;20.98;61.55;96405.31;4996134;28;20021;-82
2021/07/06 03:41:39;;;;;;;2.25;1.42;;;;;;;20.94;61.56;96397.25;5028811;28;20037;-82
2021/07/06 03:44:05;;;;;;;1.73;0.90;;;;;;;21.04;61.41;96396.06;5031266;28;20021;-82
2021/07/06 03:46:30;;;;;;;3.70;1.60;;;;;;;21.08;60.92;96383.69;5033045;28;20029;-83
2021/07/06 03:48:56;;;;;;;1.30;1.20;;;;;;;21.10;61.30;96397.34;4999721;28;20044;-82
2021/07/06 03:51:21;;;;;;;1.52;1.20;;;;;;;21.11;61.15;96400.75;5032902;28;20120;-82
2021/07/06 03:53:46;;;;;;;1.80;1.20;;;;;;;21.09;61.34;96398.44;5008889;28;20029;-82
2021/07/06 03:56:12;;;;;;;1.90;1.20;;;;;;;21.04;61.29;96382.81;5033664;28;20029;-82
2021/07/06 03:58:37;;;;;;;1.65;1.50;;;;;;;21.07;61.44;96384.78;4999998;28;20061;-82
2021/07/06 04:01:02;;;;;;;2.30;1.23;;;;;;;21.05;61.58;96383.59;5016127;28;20030;-82
2021/07/06 04:03:28;;;;;;;1.52;1.10;;;;;;;21.09;61.17;96385.22;4997798;28;20080;-83
2021/07/06 04:05:53;;;;;;;1.65;1.30;;;;;;;21.14;61.39;96385.00;5010907;28;20025;-81
2021/07/06 04:08:19;;;;;;;1.70;1.55;;;;;;;21.07;61.35;96379.50;5013664;28;20048;-82
2021/07/06 04:10:44;;;;;;;1.38;1.23;;;;;;;21.14;61.17;96374.41;5015147;28;20057;-82
2021/07/06 04:13:10;;;;;;;1.25;1.15;;;;;;;21.18;61.24;96371.88;4995946;28;20032;-82
2021/07/06 04:15:35;;;;;;;1.63;1.50;;;;;;;21.27;60.91;96379.72;5010038;28;20022;-82
2021/07/06 04:18:00;;;;;;;3.92;1.25;;;;;;;21.34;60.67;96371.97;5015526;28;20033;-82
2021/07/06 04:20:26;;;;;;;2.45;1.20;;;;;;;21.46;60.41;96371.97;4999197;28;20034;-83
2021/07/06 04:22:51;;;;;;;2.42;1.70;;;;;;;21.65;60.24;96374.00;5014892;28;20034;-82
2021/07/06 04:25:17;;;;;;;2.35;1.10;;;;;;;21.75;60.25;96383.38;4990190;28;20030;-82
2021/07/06 04:27:43;;;;;;;2.75;1.20;;;;;;;21.87;59.24;96396.59;5015749;28;20055;-82
2021/07/06 04:30:09;;;;;;;2.35;1.48;;;;;;;22.05;59.06;96396.28;5012701;28;20048;-82
2021/07/06 04:32:35;;;;;;;1.50;1.40;;;;;;;22.10;58.50;96377.50;5028732;28;20534;-82
2021/07/06 04:35:00;;;;;;;1.73;1.52;;;;;;;22.14;58.68;96370.41;5031511;28;20104;-83
2021/07/06 04:37:26;;;;;;;1.52;1.05;;;;;;;22.30;58.26;96380.31;4997632;28;20057;-83
2021/07/06 04:39:51;;;;;;;2.33;1.10;;;;;;;22.33;58.56;96385.69;5015329;28;20419;-83
2021/07/06 04:42:17;;;;;;;1.30;1.20;;;;;;;22.54;57.43;96397.97;5015269;28;20034;-83
2021/07/06 04:44:43;;;;;;;1.52;1.25;;;;;;;22.53;57.30;96409.69;5014858;28;20152;-82
2021/07/06 04:47:08;;;;;;;1.15;1.00;;;;;;;22.58;57.11;96412.84;5015378;28;20029;-82
2021/07/06 04:49:34;;;;;;;1.05;0.95;;;;;;;22.47;57.58;96417.13;4998552;28;20044;-82
2021/07/06 04:52:00;;;;;;;1.10;1.10;;;;;;;22.50;57.41;96427.06;5014602;28;20037;-82
2021/07/06 04:54:25;;;;;;;0.80;0.80;;;;;;;22.48;57.90;96423.94;5014084;28;20034;-81
2021/07/06 04:56:52;;;;;;;1.67;1.25;;;;;;;22.53;57.30;96434.31;5015021;28;20083;-82
2021/07/06 04:59:18;;;;;;;1.42;1.23;;;;;;;22.56;57.45;96432.88;5011321;28;20060;-83
2021/07/06 05:01:44;;;;;;;1.55;1.00;;;;;;;22.54;57.07;96438.53;5013092;28;20067;-82
2021/07/06 05:04:09;;;;;;;1.30;1.20;;;;;;;22.59;57.09;96422.34;4994327;28;20033;-82
2021/07/06 05:06:35;;;;;;;2.33;1.00;;;;;;;22.66;57.42;96442.22;4991565;28;20045;-82
2021/07/06 05:09:01;;;;;;;1.90;1.27;;;;;;;22.68;57.29;96429.38;4998428;28;20037;-81
2021/07/06 05:11:26;;;;;;;1.67;1.55;;;;;;;22.59;57.80;96429.56;5008562;28;20049;-82
2021/07/06 05:13:52;;;;;;;1.20;1.08;;;;;;;22.72;58.00;96431.03;5009952;28;20108;-82
2021/07/06 05:16:17;;;;;;;1.05;0.90;;;;;;;22.81;57.29;96436.91;5007420;28;20349;-82
2021/07/06 05:18:43;;;;;;;1.10;1.10;;;;;;;22.95;56.98;96428.53;5009759;28;20163;-83
2021/07/06 05:21:08;;;;;;;1.50;1.02;;;;;;;22.96;57.50;96426.63;5014727;28;20045;-83
2021/07/06 05:23:33;;;;;;;2.10;0.93;;;;;;;23.02;57.97;96445.75;4998231;28;20085;-82
2021/07/06 05:25:59;;;;;;;1.35;1.17;;;;;;;23.14;56.34;96451.00;4997732;28;20546;-83
2021/07/06 05:28:24;;;;;;;1.58;1.45;;;;;;;23.16;56.67;96446.88;4998721;28;20036;-83
2021/07/06 05:30:50;;;;;;;1.38;1.02;;;;;;;23.19;55.94;96448.84;4998064;28;20022;-82
2021/07/06 05:33:15;;;;;;;2.05;1.00;;;;;;;23.15;55.92;96484.38;4978461;28;20040;-83
2021/07/06 05:35:41;;;;;;;2.70;1.20;;;;;;;23.08;57.41;96500.94;5029314;28;20037;-83
2021/07/06 05:38:06;;;;;;;6.38;1.55;;;;;;;22.68;60.37;96495.72;5030557;28;20036;-81
2021/07/06 05:40:38;;;;;;;2.00;1.38;;;;;;;22.40;62.04;96476.06;5014203;28;20034;-81
2021/07/06 05:43:07;;;;;;;2.10;1.48;;;;;;;22.15;62.27;96456.78;5014723;28;20029;-83
2021/07/06 05:45:34;;;;;;;2.38;1.20;;;;;;;21.93;63.27;96431.56;5014251;28;20052;-82
2021/07/06 05:47:59;;;;;;;2.60;1.55;;;;;;;21.90;63.30;96434.91;5029026;28;20033;-82
2021/07/06 05:50:25;;;;;;;3.13;1.63;;;;;;;21.80;63.49;96432.72;5013576;28;20038;-82
2021/07/06 05:52:50;;;;;;;2.13;1.58;;;;;;;21.77;64.41;96457.25;5010400;28;20101;-82
2021/07/06 05:55:15;;;;;;;1.88;1.73;;;;;;;21.83;64.19;96453.22;5007752;28;20033;-82
